Orbital elements of COSMOS 1275 DEB
| Launched | 3 June 1981 |
| Flight ended | – |
| Launch site | Plesetsk Missile and Space Complex, Russia |
| Owner | Commonwealth of Independent States (former USSR) |
| NORAD ID | 17626 |
| Date fetched |
Epoch osculation |
Inc. [°] |
Ecc. | RA asc node [hr] |
Arg Peri. [°] |
Mean anom [°] |
Mean motion [rev/day] |
Abs. mag |
| Date fetched |
Epoch osculation |
Inc. [°] |
Ecc. | RA asc node [hr] |
Arg Peri. [°] |
Mean anom [°] |
Mean motion [rev/day] |
Abs. mag |
| 2026 May 05 17:57 | 2026 May 04 03:08:17 | 82.8702 | 0.01409 | 12.4080 | 21.9013 | 6.9623 | 13.64429 | – |
| 2026 May 04 17:57 | 2026 Apr 30 15:16:11 | 82.8703 | 0.01413 | 12.5793 | 31.5119 | 6.9623 | 13.64429 | – |
| 2026 May 03 17:57 | 2026 Apr 30 15:16:11 | 82.8703 | 0.01413 | 12.5793 | 31.5119 | 6.9623 | 13.64429 | – |
| 2026 May 02 17:57 | 2026 Apr 30 15:16:11 | 82.8703 | 0.01413 | 12.5793 | 31.5119 | 6.9623 | 13.64429 | – |
| 2026 May 01 17:56 | 2026 Apr 30 15:16:11 | 82.8703 | 0.01413 | 12.5793 | 31.5119 | 6.9623 | 13.64429 | – |
| 2026 Apr 30 17:56 | 2026 Apr 30 15:16:11 | 82.8703 | 0.01413 | 12.5793 | 31.5119 | 6.9623 | 13.64429 | – |
| 2026 Apr 29 17:57 | 2026 Apr 23 04:54:37 | 82.8705 | 0.01423 | 12.9435 | 51.8697 | 6.9623 | 13.64429 | – |
| 2026 Apr 28 17:56 | 2026 Apr 23 04:54:37 | 82.8705 | 0.01423 | 12.9435 | 51.8697 | 6.9623 | 13.64429 | – |
| 2026 Apr 27 17:58 | 2026 Apr 23 04:54:37 | 82.8705 | 0.01423 | 12.9435 | 51.8697 | 6.9623 | 13.64429 | – |
| 2026 Apr 26 17:58 | 2026 Apr 23 04:54:37 | 82.8705 | 0.01423 | 12.9435 | 51.8697 | 6.9623 | 13.64429 | – |
| 2026 Apr 25 17:58 | 2026 Apr 23 04:54:37 | 82.8705 | 0.01423 | 12.9435 | 51.8697 | 6.9623 | 13.64429 | – |
| 2026 Apr 24 17:59 | 2026 Apr 23 04:54:37 | 82.8705 | 0.01423 | 12.9435 | 51.8697 | 6.9623 | 13.64429 | – |
| 2026 Apr 23 17:57 | 2026 Apr 18 05:13:58 | 82.8709 | 0.01429 | 13.1879 | 65.4638 | 6.9623 | 13.64429 | – |
| 2026 Apr 22 17:57 | 2026 Apr 18 05:13:58 | 82.8709 | 0.01429 | 13.1879 | 65.4638 | 6.9623 | 13.64429 | – |
| 2026 Apr 21 17:57 | 2026 Apr 18 05:13:58 | 82.8709 | 0.01429 | 13.1879 | 65.4638 | 6.9623 | 13.64429 | – |
| 2026 Apr 20 17:57 | 2026 Apr 18 05:13:58 | 82.8709 | 0.01429 | 13.1879 | 65.4638 | 6.9623 | 13.64429 | – |
| 2026 Apr 19 17:58 | 2026 Apr 18 05:13:58 | 82.8709 | 0.01429 | 13.1879 | 65.4638 | 6.9623 | 13.64429 | – |
| 2026 Apr 18 17:56 | 2026 Apr 13 05:33:09 | 82.8706 | 0.01434 | 13.4322 | 79.0042 | 6.9623 | 13.64429 | – |
| 2026 Apr 16 17:57 | 2026 Apr 13 05:33:09 | 82.8706 | 0.01434 | 13.4322 | 79.0042 | 6.9623 | 13.64429 | – |
| 2026 Apr 14 17:57 | 2026 Apr 13 05:33:09 | 82.8706 | 0.01434 | 13.4322 | 79.0042 | 6.9623 | 13.64429 | – |
| 2026 Apr 13 17:57 | 2026 Apr 13 05:33:09 | 82.8706 | 0.01434 | 13.4322 | 79.0042 | 6.9623 | 13.64429 | – |
| 2026 Apr 12 17:57 | 2026 Apr 07 18:08:49 | 82.8702 | 0.01438 | 13.7005 | 93.8319 | 6.9623 | 13.64429 | – |
| 2026 Apr 11 17:57 | 2026 Apr 07 18:08:49 | 82.8702 | 0.01438 | 13.7005 | 93.8319 | 6.9623 | 13.64429 | – |
| 2026 Apr 10 17:58 | 2026 Apr 07 18:08:49 | 82.8702 | 0.01438 | 13.7005 | 93.8319 | 6.9623 | 13.64429 | – |
| 2026 Apr 09 18:01 | 2026 Apr 07 18:08:49 | 82.8702 | 0.01438 | 13.7005 | 93.8319 | 6.9623 | 13.64429 | – |
| 2026 Apr 08 17:57 | 2026 Apr 07 18:08:49 | 82.8702 | 0.01438 | 13.7005 | 93.8319 | 6.9623 | 13.64429 | – |